Time;durP1;ratioP1;P1;durP2;ratioP2;P2;SDS_P1;SDS_P2;PMS_P1;PMS_P2;Temp;Humidity;BMP_temperature;BMP_pressure;BME280_temperature;BME280_humidity;BME280_pressure;Samples;Min_cycle;Max_cycle;Signal;HPM_P1;HPM_P2
2022/08/30 00:03:08;;;;;;;;;;;22.60;73.30;;;;;;5052188;28;1188;-65
2022/08/30 00:05:33;;;;;;;;;;;22.60;73.30;;;;;;5054251;28;894;-64
2022/08/30 00:07:59;;;;;;;;;;;22.60;73.40;;;;;;5038634;28;1435;-67
2022/08/30 00:10:24;;;;;;;;;;;22.60;73.30;;;;;;5056542;28;1509;-66
2022/08/30 00:12:50;;;;;;;;;;;22.60;73.40;;;;;;5055983;28;843;-67
2022/08/30 00:15:16;;;;;;;;;;;22.60;73.30;;;;;;5056145;28;1259;-67
2022/08/30 00:17:42;;;;;;;;;;;22.60;73.40;;;;;;5038495;28;934;-66
2022/08/30 00:20:09;;;;;;;;;;;22.60;73.30;;;;;;5055945;28;1980;-66
2022/08/30 00:22:34;;;;;;;;;;;22.60;73.40;;;;;;5055989;28;836;-66
2022/08/30 00:25:00;;;;;;;;;;;22.60;73.40;;;;;;5056027;28;1176;-66
2022/08/30 00:27:26;;;;;;;;;;;22.60;73.40;;;;;;5055773;28;1174;-66
2022/08/30 00:29:51;;;;;;;;;;;22.60;73.40;;;;;;5056238;28;852;-66
2022/08/30 00:32:20;;;;;;;;;;;22.60;73.40;;;;;;5037845;28;1053;-66
2022/08/30 00:34:48;;;;;;;;;;;22.60;73.40;;;;;;5055589;28;1212;-66
2022/08/30 00:37:14;;;;;;;;;;;22.60;73.40;;;;;;5038205;28;977;-66
2022/08/30 00:39:39;;;;;;;;;;;22.60;73.40;;;;;;5055960;28;1017;-66
2022/08/30 00:42:05;;;;;;;;;;;22.60;73.40;;;;;;5055363;28;1951;-66
2022/08/30 00:44:31;;;;;;;;;;;22.60;73.40;;;;;;5055647;28;1185;-66
2022/08/30 00:46:56;;;;;;;;;;;22.60;73.40;;;;;;5056025;28;1562;-67
2022/08/30 00:49:21;;;;;;;;;;;22.60;73.50;;;;;;5055505;28;950;-66
2022/08/30 00:51:47;;;;;;;;;;;22.60;73.40;;;;;;5037563;28;903;-66
2022/08/30 00:54:12;;;;;;;;;;;22.60;73.40;;;;;;5055433;28;1219;-66
2022/08/30 00:56:38;;;;;;;;;;;22.60;73.40;;;;;;5037733;28;1002;-66
2022/08/30 00:59:03;;;;;;;;;;;22.60;73.40;;;;;;5055613;28;800;-65
2022/08/30 01:01:29;;;;;;;;;;;22.60;73.40;;;;;;5037312;28;1973;-66
2022/08/30 01:03:54;;;;;;;;;;;22.60;73.40;;;;;;5035663;28;1379;-66
2022/08/30 01:06:20;;;;;;;;;;;22.60;73.50;;;;;;5035930;28;1290;-66
2022/08/30 01:08:45;;;;;;;;;;;22.60;73.50;;;;;;5051949;28;2368;-66
2022/08/30 01:11:11;;;;;;;;;;;22.60;73.40;;;;;;5054873;28;1579;-65
2022/08/30 01:16:13;;;;;;;;;;;22.60;73.50;;;;;;5033899;28;1595;-68
2022/08/30 01:18:38;;;;;;;;;;;22.60;73.50;;;;;;5034495;28;795;-68
2022/08/30 01:21:14;;;;;;;;;;;22.60;73.50;;;;;;5024702;28;1985;-67
2022/08/30 01:23:40;;;;;;;;;;;22.60;73.50;;;;;;5033955;28;1170;-67
2022/08/30 01:26:05;;;;;;;;;;;22.60;73.50;;;;;;5013720;28;1104;-68
2022/08/30 01:28:31;;;;;;;;;;;22.60;73.50;;;;;;5015088;28;1144;-68
2022/08/30 01:30:56;;;;;;;;;;;22.60;73.50;;;;;;4996028;28;1209;-67
2022/08/30 01:33:22;;;;;;;;;;;22.60;73.50;;;;;;4995390;28;1922;-67
2022/08/30 01:35:48;;;;;;;;;;;22.60;73.50;;;;;;4997829;28;1401;-67
2022/08/30 01:38:14;;;;;;;;;;;22.60;73.50;;;;;;5014951;28;1287;-67
2022/08/30 01:40:39;;;;;;;;;;;22.60;73.50;;;;;;4996825;28;1968;-68
2022/08/30 01:43:05;;;;;;;;;;;22.60;73.50;;;;;;5014713;28;1197;-68
2022/08/30 01:45:31;;;;;;;;;;;22.60;73.50;;;;;;4996584;28;1292;-68
2022/08/30 01:47:56;;;;;;;;;;;22.60;73.50;;;;;;5014219;28;1236;-67
2022/08/30 01:50:22;;;;;;;;;;;22.60;73.50;;;;;;5014249;28;1257;-68
2022/08/30 01:52:47;;;;;;;;;;;22.60;73.50;;;;;;4996433;28;1213;-68
2022/08/30 01:55:12;;;;;;;;;;;22.60;73.50;;;;;;4996382;28;1323;-66
2022/08/30 01:57:38;;;;;;;;;;;22.60;73.50;;;;;;5014027;28;1292;-68
2022/08/30 02:00:05;;;;;;;;;;;22.60;73.50;;;;;;4996869;28;1965;-67
2022/08/30 02:02:31;;;;;;;;;;;22.60;73.50;;;;;;5014158;28;749;-67
2022/08/30 02:04:56;;;;;;;;;;;22.60;73.50;;;;;;4996937;28;1316;-68
2022/08/30 02:07:22;;;;;;;;;;;22.60;73.50;;;;;;4996467;28;1205;-68
2022/08/30 02:09:48;;;;;;;;;;;22.60;73.50;;;;;;4996689;28;1327;-69
2022/08/30 02:12:14;;;;;;;;;;;22.60;73.50;;;;;;5013639;28;1315;-69
2022/08/30 02:14:39;;;;;;;;;;;22.60;73.50;;;;;;4995944;28;1360;-67
2022/08/30 02:17:06;;;;;;;;;;;22.60;73.50;;;;;;5013773;28;1260;-68
2022/08/30 02:19:31;;;;;;;;;;;22.60;73.50;;;;;;4996229;28;1225;-68
2022/08/30 02:21:56;;;;;;;;;;;22.60;73.50;;;;;;5013834;28;1894;-67
2022/08/30 02:24:22;;;;;;;;;;;22.60;73.50;;;;;;5012797;28;1314;-67
2022/08/30 02:26:48;;;;;;;;;;;22.60;73.50;;;;;;5013958;28;1056;-67
2022/08/30 02:29:13;;;;;;;;;;;22.60;73.50;;;;;;4995325;28;939;-67
2022/08/30 02:31:38;;;;;;;;;;;22.60;73.50;;;;;;4995215;28;892;-67
2022/08/30 02:34:04;;;;;;;;;;;22.60;73.60;;;;;;5013907;28;1197;-67
2022/08/30 02:36:29;;;;;;;;;;;22.60;73.60;;;;;;5013987;28;1114;-67
2022/08/30 02:38:55;;;;;;;;;;;22.60;73.50;;;;;;5014057;28;713;-67
2022/08/30 02:41:22;;;;;;;;;;;22.60;73.50;;;;;;4979782;28;1957;-67
2022/08/30 02:43:48;;;;;;;;;;;22.60;73.50;;;;;;4996356;28;1204;-67
2022/08/30 02:46:13;;;;;;;;;;;22.60;73.50;;;;;;4996414;28;852;-66
2022/08/30 02:48:38;;;;;;;;;;;22.60;73.50;;;;;;4996369;28;1062;-66
2022/08/30 02:51:05;;;;;;;;;;;22.60;73.50;;;;;;5013511;28;788;-66
2022/08/30 02:53:30;;;;;;;;;;;22.60;73.60;;;;;;5013847;28;911;-67
2022/08/30 02:55:56;;;;;;;;;;;22.60;73.60;;;;;;4996098;28;1186;-67
2022/08/30 02:58:21;;;;;;;;;;;22.60;73.60;;;;;;5013616;28;772;-66
2022/08/30 03:00:47;;;;;;;;;;;22.60;73.60;;;;;;5013369;28;1895;-67
2022/08/30 03:03:12;;;;;;;;;;;22.60;73.60;;;;;;5013281;28;847;-68
2022/08/30 03:05:38;;;;;;;;;;;22.60;73.60;;;;;;5013296;28;1275;-68
2022/08/30 03:08:03;;;;;;;;;;;22.60;73.60;;;;;;5013332;28;1011;-68
2022/08/30 03:10:29;;;;;;;;;;;22.60;73.60;;;;;;5013540;28;873;-68
2022/08/30 03:12:54;;;;;;;;;;;22.60;73.60;;;;;;4995613;28;887;-68
2022/08/30 03:15:24;;;;;;;;;;;22.60;73.60;;;;;;5013506;28;1193;-68
2022/08/30 03:17:49;;;;;;;;;;;22.60;73.60;;;;;;4996255;28;867;-68
2022/08/30 03:20:15;;;;;;;;;;;22.60;74.30;;;;;;5013261;28;1953;-68
2022/08/30 03:22:40;;;;;;;;;;;22.60;73.60;;;;;;5011768;28;1377;-68
2022/08/30 03:25:06;;;;;;;;;;;22.60;73.60;;;;;;5013248;28;1338;-68
2022/08/30 03:27:31;;;;;;;;;;;22.60;73.60;;;;;;5012934;28;1131;-67
2022/08/30 03:29:57;;;;;;;;;;;22.60;73.60;;;;;;5013200;28;804;-68
2022/08/30 03:32:22;;;;;;;;;;;22.60;73.60;;;;;;4995289;28;808;-67
2022/08/30 03:34:49;;;;;;;;;;;22.60;73.60;;;;;;4995337;28;1441;-67
2022/08/30 03:37:14;;;;;;;;;;;22.60;73.60;;;;;;5013225;28;843;-68
2022/08/30 03:39:40;;;;;;;;;;;22.60;73.70;;;;;;5013401;28;1072;-68
2022/08/30 03:42:05;;;;;;;;;;;22.60;73.60;;;;;;4999181;28;1957;-68
2022/08/30 03:44:30;;;;;;;;;;;22.60;73.70;;;;;;4999613;28;1387;-68
2022/08/30 03:46:56;;;;;;;;;;;22.60;73.70;;;;;;5017039;28;780;-68
2022/08/30 03:49:22;;;;;;;;;;;22.60;73.60;;;;;;5017131;28;855;-68
2022/08/30 03:51:48;;;;;;;;;;;22.60;73.70;;;;;;5016735;28;851;-68
2022/08/30 03:54:13;;;;;;;;;;;22.60;73.70;;;;;;4999114;28;1218;-67
2022/08/30 03:56:39;;;;;;;;;;;22.60;73.70;;;;;;4982859;28;1349;-67
2022/08/30 03:59:04;;;;;;;;;;;22.60;73.70;;;;;;4999373;28;812;-67
2022/08/30 04:01:30;;;;;;;;;;;22.60;73.70;;;;;;5016482;28;1958;-67
2022/08/30 04:03:55;;;;;;;;;;;22.60;73.70;;;;;;5016601;28;1277;-67
2022/08/30 04:06:21;;;;;;;;;;;22.60;73.70;;;;;;5016779;28;843;-67
2022/08/30 04:08:46;;;;;;;;;;;22.50;73.60;;;;;;4999270;28;788;-67
2022/08/30 04:11:13;;;;;;;;;;;22.60;73.70;;;;;;5016280;28;870;-67
2022/08/30 04:13:39;;;;;;;;;;;22.60;73.70;;;;;;5016535;28;902;-68
2022/08/30 04:16:04;;;;;;;;;;;22.60;73.70;;;;;;4998591;28;1189;-68
2022/08/30 04:18:30;;;;;;;;;;;22.60;73.70;;;;;;5016901;28;765;-68
2022/08/30 04:20:55;;;;;;;;;;;22.50;73.60;;;;;;5016309;28;1918;-68
2022/08/30 04:23:21;;;;;;;;;;;22.60;73.70;;;;;;5016597;28;942;-68
2022/08/30 04:25:46;;;;;;;;;;;22.60;73.70;;;;;;5016293;28;1305;-68
2022/08/30 04:28:11;;;;;;;;;;;22.60;73.70;;;;;;5016126;28;1095;-68
2022/08/30 04:30:41;;;;;;;;;;;22.60;73.70;;;;;;5016460;28;1062;-68
2022/08/30 04:33:06;;;;;;;;;;;22.60;73.70;;;;;;4998422;28;809;-68
2022/08/30 04:35:32;;;;;;;;;;;22.60;73.80;;;;;;5016076;28;1263;-67
2022/08/30 04:37:57;;;;;;;;;;;22.50;73.70;;;;;;5016566;28;943;-67
2022/08/30 04:40:23;;;;;;;;;;;22.60;73.80;;;;;;5015982;28;1902;-67
2022/08/30 04:42:52;;;;;;;;;;;22.60;73.80;;;;;;5015736;28;928;-68
2022/08/30 04:45:18;;;;;;;;;;;22.50;73.70;;;;;;4998767;28;1237;-68
2022/08/30 04:47:43;;;;;;;;;;;22.60;73.70;;;;;;4998331;28;871;-67
2022/08/30 04:50:09;;;;;;;;;;;22.60;73.80;;;;;;4998280;28;1286;-68
2022/08/30 04:52:35;;;;;;;;;;;22.60;73.80;;;;;;4981657;28;1183;-68
2022/08/30 04:55:00;;;;;;;;;;;22.60;73.70;;;;;;5015589;28;1294;-68
2022/08/30 04:57:26;;;;;;;;;;;22.50;73.70;;;;;;5016003;28;765;-68
2022/08/30 04:59:51;;;;;;;;;;;22.60;73.80;;;;;;5015739;28;1906;-69
2022/08/30 05:02:17;;;;;;;;;;;22.60;73.70;;;;;;4997991;28;951;-69
2022/08/30 05:05:38;;;;;;;;;;;22.60;73.80;;;;;;4998181;28;1295;-68
2022/08/30 05:07:28;;;;;;;;;;;22.50;73.70;;;;;;5015438;28;1021;-69
2022/08/30 05:09:53;;;;;;;;;;;22.60;73.80;;;;;;5015511;28;1014;-68
2022/08/30 05:12:19;;;;;;;;;;;22.60;73.80;;;;;;4997915;28;817;-68
2022/08/30 05:14:44;;;;;;;;;;;22.50;73.70;;;;;;4997615;28;1212;-69
2022/08/30 05:17:10;;;;;;;;;;;22.60;73.80;;;;;;4997849;28;995;-67
2022/08/30 05:19:35;;;;;;;;;;;22.50;73.70;;;;;;5015391;28;1225;-69
2022/08/30 05:22:00;;;;;;;;;;;22.60;74.50;;;;;;5014991;28;1906;-68
2022/08/30 05:24:26;;;;;;;;;;;22.60;73.80;;;;;;5015012;28;1315;-68
2022/08/30 05:26:51;;;;;;;;;;;22.60;73.80;;;;;;5011941;28;1119;-68
2022/08/30 05:29:17;;;;;;;;;;;22.50;73.70;;;;;;5015084;28;884;-68
2022/08/30 05:31:43;;;;;;;;;;;22.50;73.70;;;;;;4997404;28;907;-68
2022/08/30 05:34:08;;;;;;;;;;;22.50;73.70;;;;;;4997471;28;1197;-68
2022/08/30 05:36:34;;;;;;;;;;;22.50;73.70;;;;;;5020617;28;2822;-68
2022/08/30 05:38:59;;;;;;;;;;;22.50;73.70;;;;;;5016682;28;1252;-68
2022/08/30 05:41:25;;;;;;;;;;;22.50;73.70;;;;;;5012949;28;1882;-68
2022/08/30 05:43:51;;;;;;;;;;;22.60;73.70;;;;;;5024825;28;1270;-68
2022/08/30 05:46:18;;;;;;;;;;;22.50;73.70;;;;;;5025956;28;1127;-68
2022/08/30 05:48:43;;;;;;;;;;;22.50;73.70;;;;;;5023808;28;1131;-68
2022/08/30 05:51:10;;;;;;;;;;;22.50;73.70;;;;;;5034277;28;1060;-67
2022/08/30 05:53:35;;;;;;;;;;;22.50;73.70;;;;;;5016629;28;875;-67
2022/08/30 05:56:01;;;;;;;;;;;22.50;74.40;;;;;;5016522;28;1205;-67
2022/08/30 05:58:27;;;;;;;;;;;22.50;73.70;;;;;;5016601;28;808;-67
2022/08/30 06:00:53;;;;;;;;;;;22.60;73.80;;;;;;5031003;28;1894;-67
2022/08/30 06:03:18;;;;;;;;;;;22.50;73.80;;;;;;5025172;28;1074;-67
2022/08/30 06:05:43;;;;;;;;;;;22.50;73.70;;;;;;5034080;28;1279;-67
2022/08/30 06:08:09;;;;;;;;;;;22.50;73.80;;;;;;5033985;28;923;-67
2022/08/30 06:10:34;;;;;;;;;;;22.50;73.80;;;;;;5034379;28;946;-67
2022/08/30 06:13:00;;;;;;;;;;;22.50;73.80;;;;;;5016065;28;871;-67
2022/08/30 06:15:25;;;;;;;;;;;22.50;73.80;;;;;;5033825;28;1260;-67
2022/08/30 06:17:51;;;;;;;;;;;22.60;74.60;;;;;;5034020;28;836;-67
2022/08/30 06:20:19;;;;;;;;;;;22.60;73.90;;;;;;5027564;28;1914;-69
2022/08/30 06:22:44;;;;;;;;;;;22.50;73.80;;;;;;5012579;28;836;-68
2022/08/30 06:25:10;;;;;;;;;;;22.50;73.80;;;;;;5012794;28;1261;-69
2022/08/30 06:27:35;;;;;;;;;;;22.50;73.90;;;;;;5005072;28;1115;-67
2022/08/30 06:30:01;;;;;;;;;;;22.50;73.80;;;;;;5014165;28;808;-68
2022/08/30 06:32:26;;;;;;;;;;;22.50;73.90;;;;;;5014145;28;863;-67
2022/08/30 06:34:52;;;;;;;;;;;22.50;74.00;;;;;;5013925;28;1212;-67
2022/08/30 06:37:17;;;;;;;;;;;22.60;74.10;;;;;;4996267;28;1321;-68
2022/08/30 06:39:42;;;;;;;;;;;22.50;74.10;;;;;;5013982;28;1006;-68
2022/08/30 06:42:08;;;;;;;;;;;22.60;74.20;;;;;;5013512;28;1898;-67
2022/08/30 06:44:33;;;;;;;;;;;22.60;74.10;;;;;;5013673;28;1207;-68
2022/08/30 06:46:59;;;;;;;;;;;22.60;74.10;;;;;;5013871;28;812;-68
2022/08/30 06:49:24;;;;;;;;;;;22.50;74.10;;;;;;5012732;28;1080;-68
2022/08/30 06:51:50;;;;;;;;;;;22.50;74.10;;;;;;5013733;28;1057;-67
2022/08/30 06:54:15;;;;;;;;;;;22.50;74.00;;;;;;5012216;28;1298;-67
2022/08/30 06:56:41;;;;;;;;;;;22.60;74.20;;;;;;5012488;28;824;-67
2022/08/30 06:59:06;;;;;;;;;;;22.50;74.00;;;;;;5013636;28;812;-69
2022/08/30 07:01:32;;;;;;;;;;;22.60;74.10;;;;;;5013217;28;1898;-68
2022/08/30 07:03:57;;;;;;;;;;;22.50;74.00;;;;;;5013383;28;1197;-69
2022/08/30 07:06:23;;;;;;;;;;;22.60;74.00;;;;;;5012075;28;1069;-68
2022/08/30 07:08:49;;;;;;;;;;;22.60;74.10;;;;;;5013547;28;851;-69
2022/08/30 07:11:23;;;;;;;;;;;22.60;74.10;;;;;;5011915;28;839;-69
2022/08/30 07:13:49;;;;;;;;;;;22.50;74.00;;;;;;5013606;28;1211;-68
2022/08/30 07:16:14;;;;;;;;;;;22.50;74.00;;;;;;5012767;28;1080;-68
2022/08/30 07:18:55;;;;;;;;;;;22.50;74.00;;;;;;5013379;28;1018;-69
2022/08/30 07:21:34;;;;;;;;;;;22.60;74.10;;;;;;5012913;28;1902;-68
2022/08/30 07:23:59;;;;;;;;;;;22.50;74.00;;;;;;5012050;28;1272;-68
2022/08/30 07:26:26;;;;;;;;;;;22.60;74.10;;;;;;5011881;28;1198;-68
2022/08/30 07:28:51;;;;;;;;;;;22.50;74.00;;;;;;4995731;28;895;-68
2022/08/30 07:31:17;;;;;;;;;;;22.60;74.10;;;;;;4995231;28;1030;-68
2022/08/30 07:33:43;;;;;;;;;;;22.50;74.00;;;;;;4995681;28;1212;-68
2022/08/30 07:36:09;;;;;;;;;;;22.60;74.10;;;;;;5013238;28;858;-68
2022/08/30 07:38:34;;;;;;;;;;;22.60;74.10;;;;;;4995582;28;866;-68
2022/08/30 07:41:00;;;;;;;;;;;22.50;74.00;;;;;;5012824;28;1906;-68
2022/08/30 07:43:29;;;;;;;;;;;22.60;74.10;;;;;;4995940;28;841;-68
2022/08/30 07:45:56;;;;;;;;;;;22.50;74.10;;;;;;5012787;28;1221;-68
2022/08/30 07:48:22;;;;;;;;;;;22.60;74.20;;;;;;5013010;28;816;-67
2022/08/30 07:50:47;;;;;;;;;;;22.50;74.80;;;;;;5012938;28;1093;-67
2022/08/30 07:53:13;;;;;;;;;;;22.60;74.10;;;;;;5012749;28;860;-67
2022/08/30 07:55:38;;;;;;;;;;;22.50;74.00;;;;;;5012816;28;1254;-67
2022/08/30 07:58:03;;;;;;;;;;;22.60;74.10;;;;;;5012985;28;883;-67
2022/08/30 08:00:29;;;;;;;;;;;22.60;74.10;;;;;;5004595;28;1985;-66
2022/08/30 08:02:54;;;;;;;;;;;22.60;74.10;;;;;;5003981;28;1848;-67
2022/08/30 08:05:20;;;;;;;;;;;22.50;74.10;;;;;;5009395;28;1298;-66
2022/08/30 08:07:45;;;;;;;;;;;22.60;74.10;;;;;;5011667;28;1951;-67
2022/08/30 08:10:12;;;;;;;;;;;22.50;74.10;;;;;;5011758;28;1032;-67
2022/08/30 08:12:38;;;;;;;;;;;22.50;74.10;;;;;;5012220;28;1108;-67
2022/08/30 08:15:03;;;;;;;;;;;22.60;74.10;;;;;;5012167;28;1265;-67
2022/08/30 08:17:29;;;;;;;;;;;22.60;74.10;;;;;;5008572;28;1842;-67
2022/08/30 08:19:54;;;;;;;;;;;22.60;74.10;;;;;;4994147;28;1207;-67
2022/08/30 08:22:19;;;;;;;;;;;22.60;74.10;;;;;;5010244;28;1964;-66
2022/08/30 08:24:45;;;;;;;;;;;22.60;74.10;;;;;;5007809;28;1910;-67
2022/08/30 08:27:11;;;;;;;;;;;22.60;74.10;;;;;;5015130;28;1271;-67
2022/08/30 08:29:36;;;;;;;;;;;22.60;74.10;;;;;;5015017;28;1102;-67
2022/08/30 08:32:02;;;;;;;;;;;22.60;74.10;;;;;;4997425;28;800;-67
2022/08/30 08:34:27;;;;;;;;;;;22.60;74.10;;;;;;5016383;28;1267;-67
2022/08/30 08:36:53;;;;;;;;;;;22.60;74.10;;;;;;5016546;28;718;-67
2022/08/30 08:39:18;;;;;;;;;;;22.60;74.20;;;;;;4998627;28;820;-67
2022/08/30 08:41:48;;;;;;;;;;;22.60;74.10;;;;;;5015799;28;1949;-67
2022/08/30 08:44:20;;;;;;;;;;;22.60;74.10;;;;;;4998346;28;1212;-67
2022/08/30 08:46:51;;;;;;;;;;;22.50;74.10;;;;;;5016170;28;1010;-67
2022/08/30 08:49:16;;;;;;;;;;;22.60;74.10;;;;;;4998700;28;784;-67
2022/08/30 08:54:41;;;;;;;;;;;22.60;74.20;;;;;;5015877;28;1188;-66
2022/08/30 08:57:06;;;;;;;;;;;22.60;74.20;;;;;;4998333;28;888;-67
2022/08/30 08:59:32;;;;;;;;;;;22.60;74.20;;;;;;4998244;28;1259;-67
2022/08/30 09:01:57;;;;;;;;;;;22.60;74.20;;;;;;5015406;28;1899;-66
2022/08/30 09:04:24;;;;;;;;;;;22.60;74.20;;;;;;4998050;28;1275;-67
2022/08/30 09:06:54;;;;;;;;;;;22.60;74.20;;;;;;4998239;28;915;-67
2022/08/30 09:09:20;;;;;;;;;;;22.50;74.10;;;;;;4997999;28;861;-67
2022/08/30 09:11:46;;;;;;;;;;;22.50;74.20;;;;;;4997731;28;820;-67
2022/08/30 09:14:13;;;;;;;;;;;22.60;74.20;;;;;;4997983;28;1230;-67
2022/08/30 09:16:49;;;;;;;;;;;22.50;74.20;;;;;;4998040;28;820;-67
2022/08/30 09:19:26;;;;;;;;;;;22.60;75.00;;;;;;4998012;28;911;-67
2022/08/30 09:21:58;;;;;;;;;;;22.50;74.30;;;;;;5014913;28;1961;-67
2022/08/30 09:24:23;;;;;;;;;;;22.60;74.30;;;;;;5014177;28;1220;-67
2022/08/30 09:26:49;;;;;;;;;;;22.50;74.30;;;;;;5015406;28;1194;-67
2022/08/30 09:29:18;;;;;;;;;;;22.60;74.40;;;;;;4997731;28;816;-66
2022/08/30 09:31:47;;;;;;;;;;;22.60;74.40;;;;;;4996341;28;964;-66
2022/08/30 09:34:17;;;;;;;;;;;22.60;74.40;;;;;;5015042;28;1302;-66
2022/08/30 09:36:43;;;;;;;;;;;22.60;74.40;;;;;;5034734;28;792;-67
2022/08/30 09:39:19;;;;;;;;;;;22.50;74.40;;;;;;5031032;28;2161;-67
2022/08/30 09:41:47;;;;;;;;;;;22.60;74.50;;;;;;4995507;28;1993;-67
2022/08/30 09:44:18;;;;;;;;;;;22.50;74.40;;;;;;4997674;28;1589;-67
2022/08/30 09:46:49;;;;;;;;;;;22.60;74.50;;;;;;5014353;28;1162;-67
2022/08/30 09:49:28;;;;;;;;;;;22.60;74.50;;;;;;4994429;28;2170;-68
2022/08/30 09:51:58;;;;;;;;;;;22.60;74.50;;;;;;5014142;28;1274;-67
2022/08/30 09:54:30;;;;;;;;;;;22.60;74.50;;;;;;4997070;28;1227;-67
2022/08/30 09:56:59;;;;;;;;;;;22.60;74.60;;;;;;4997076;28;900;-67
2022/08/30 09:59:25;;;;;;;;;;;22.60;74.50;;;;;;5014343;28;811;-67
2022/08/30 10:02:00;;;;;;;;;;;22.60;74.60;;;;;;5013986;28;1894;-67
2022/08/30 10:04:28;;;;;;;;;;;22.60;74.60;;;;;;4996746;28;1275;-66
2022/08/30 10:06:55;;;;;;;;;;;22.60;74.60;;;;;;4996722;28;851;-67
2022/08/30 10:09:21;;;;;;;;;;;22.60;74.70;;;;;;5014439;28;938;-67
2022/08/30 10:11:52;;;;;;;;;;;22.60;74.70;;;;;;5013541;28;891;-67
2022/08/30 10:14:23;;;;;;;;;;;22.60;74.60;;;;;;4996672;28;1710;-67
2022/08/30 10:16:55;;;;;;;;;;;22.60;74.60;;;;;;5014204;28;867;-67
2022/08/30 10:19:20;;;;;;;;;;;22.60;74.60;;;;;;4996797;28;1010;-67
2022/08/30 10:21:51;;;;;;;;;;;22.60;74.60;;;;;;5013960;28;1902;-67
2022/08/30 10:24:18;;;;;;;;;;;22.60;74.60;;;;;;5012484;28;1316;-67
2022/08/30 10:26:50;;;;;;;;;;;22.60;74.60;;;;;;5012210;28;1195;-67
2022/08/30 10:29:28;;;;;;;;;;;22.60;74.60;;;;;;5012832;28;871;-67
2022/08/30 10:31:59;;;;;;;;;;;22.60;74.60;;;;;;5013608;28;1006;-67
2022/08/30 10:34:45;;;;;;;;;;;22.60;74.50;;;;;;5013850;28;1222;-67
2022/08/30 10:37:12;;;;;;;;;;;22.60;74.50;;;;;;5013638;28;988;-67
2022/08/30 10:39:42;;;;;;;;;;;22.60;74.50;;;;;;5013858;28;827;-67
2022/08/30 10:42:09;;;;;;;;;;;22.60;74.50;;;;;;5012431;28;1973;-67
2022/08/30 10:44:36;;;;;;;;;;;22.60;74.50;;;;;;5012566;28;1324;-67
2022/08/30 10:47:20;;;;;;;;;;;22.60;74.50;;;;;;5012481;28;1069;-67
2022/08/30 10:49:46;;;;;;;;;;;22.60;74.50;;;;;;5012439;28;792;-67
2022/08/30 10:52:14;;;;;;;;;;;22.60;74.50;;;;;;5013388;28;1049;-67
2022/08/30 10:55:03;;;;;;;;;;;22.60;74.50;;;;;;5012768;28;2180;-68
2022/08/30 10:57:28;;;;;;;;;;;22.60;74.50;;;;;;5007526;28;1144;-67
2022/08/30 10:59:56;;;;;;;;;;;22.60;74.50;;;;;;5009580;28;1875;-67
2022/08/30 11:02:27;;;;;;;;;;;22.60;74.50;;;;;;4990054;28;1891;-66
2022/08/30 11:05:08;;;;;;;;;;;22.60;74.50;;;;;;4995535;28;1410;-66
2022/08/30 11:07:36;;;;;;;;;;;22.60;74.40;;;;;;5013434;28;840;-67
2022/08/30 11:10:13;;;;;;;;;;;22.60;74.50;;;;;;4995700;28;1034;-67
2022/08/30 11:12:50;;;;;;;;;;;22.60;74.40;;;;;;4995640;28;872;-67
2022/08/30 11:15:16;;;;;;;;;;;22.60;74.50;;;;;;4994052;28;2081;-66
2022/08/30 11:17:45;;;;;;;;;;;22.60;74.40;;;;;;4999547;28;1264;-66
2022/08/30 11:20:29;;;;;;;;;;;22.60;74.40;;;;;;5023160;28;1920;-67
2022/08/30 11:23:18;;;;;;;;;;;22.60;74.40;;;;;;5012897;28;833;-66
2022/08/30 11:25:48;;;;;;;;;;;22.60;74.40;;;;;;4976012;28;1282;-67
2022/08/30 11:28:33;;;;;;;;;;;22.60;74.40;;;;;;5009548;28;1208;-67
2022/08/30 11:31:22;;;;;;;;;;;22.60;74.40;;;;;;5012342;28;1046;-67
2022/08/30 11:33:58;;;;;;;;;;;22.60;74.40;;;;;;4987990;28;1692;-67
2022/08/30 11:36:30;;;;;;;;;;;22.60;74.40;;;;;;5010570;28;1197;-67
2022/08/30 11:39:09;;;;;;;;;;;22.60;74.40;;;;;;5012525;28;1245;-67
2022/08/30 11:41:37;;;;;;;;;;;22.60;74.40;;;;;;5010044;28;1918;-67
2022/08/30 11:44:12;;;;;;;;;;;22.60;74.40;;;;;;5012456;28;1337;-67
2022/08/30 11:46:38;;;;;;;;;;;22.60;74.40;;;;;;5012956;28;851;-68
2022/08/30 11:49:13;;;;;;;;;;;22.60;74.40;;;;;;4995418;28;863;-67
2022/08/30 11:51:38;;;;;;;;;;;22.60;74.40;;;;;;5013010;28;879;-67
2022/08/30 11:54:19;;;;;;;;;;;22.60;74.40;;;;;;5012972;28;2657;-67
2022/08/30 11:56:48;;;;;;;;;;;22.60;74.30;;;;;;4994123;28;1729;-67
2022/08/30 11:59:32;;;;;;;;;;;22.60;74.40;;;;;;4989220;28;1116;-67
2022/08/30 12:02:00;;;;;;;;;;;22.60;74.40;;;;;;5014459;28;1918;-67
2022/08/30 12:04:26;;;;;;;;;;;22.60;74.30;;;;;;5016126;28;1334;-67
2022/08/30 12:06:53;;;;;;;;;;;22.60;74.30;;;;;;4998916;28;849;-67
2022/08/30 12:09:19;;;;;;;;;;;22.60;74.30;;;;;;4998108;28;836;-67
2022/08/30 12:11:50;;;;;;;;;;;22.60;74.30;;;;;;5016011;28;812;-67
2022/08/30 12:14:34;;;;;;;;;;;22.60;74.40;;;;;;5016040;28;1200;-67
2022/08/30 12:19:46;;;;;;;;;;;22.60;74.30;;;;;;5016253;28;1224;-67
2022/08/30 12:22:14;;;;;;;;;;;22.60;74.30;;;;;;5016045;28;1969;-67
2022/08/30 12:24:42;;;;;;;;;;;22.60;74.30;;;;;;5016099;28;1212;-67
2022/08/30 12:27:20;;;;;;;;;;;22.60;74.30;;;;;;5011498;28;1174;-66
2022/08/30 12:29:50;;;;;;;;;;;22.60;74.30;;;;;;5016657;28;781;-67
2022/08/30 12:32:20;;;;;;;;;;;22.60;74.20;;;;;;5014841;28;882;-67
2022/08/30 12:34:53;;;;;;;;;;;22.60;74.30;;;;;;5032232;28;1213;-67
2022/08/30 12:37:20;;;;;;;;;;;22.60;74.30;;;;;;5035786;28;743;-67
2022/08/30 12:39:45;;;;;;;;;;;22.60;74.30;;;;;;5017876;28;906;-67
2022/08/30 12:42:12;;;;;;;;;;;22.60;74.30;;;;;;5017715;28;1959;-67
2022/08/30 12:44:38;;;;;;;;;;;22.60;74.30;;;;;;5035442;28;1325;-67
2022/08/30 12:47:04;;;;;;;;;;;22.60;74.40;;;;;;5018100;28;800;-67
2022/08/30 12:49:30;;;;;;;;;;;22.60;74.30;;;;;;5017629;28;796;-67
2022/08/30 12:51:56;;;;;;;;;;;22.60;74.40;;;;;;5017765;28;878;-67
2022/08/30 12:54:23;;;;;;;;;;;22.60;74.40;;;;;;5017124;28;1339;-67
2022/08/30 12:56:59;;;;;;;;;;;22.60;74.40;;;;;;5017926;28;934;-67
2022/08/30 12:59:37;;;;;;;;;;;22.60;74.40;;;;;;5017619;28;788;-68
2022/08/30 13:02:07;;;;;;;;;;;22.60;74.30;;;;;;5035343;28;1949;-67
2022/08/30 13:04:32;;;;;;;;;;;22.60;74.30;;;;;;5035164;28;1201;-67
2022/08/30 13:06:58;;;;;;;;;;;22.60;74.40;;;;;;5034945;28;878;-67
2022/08/30 13:09:25;;;;;;;;;;;22.60;74.40;;;;;;5017599;28;815;-67
2022/08/30 13:11:51;;;;;;;;;;;22.60;74.30;;;;;;5034664;28;833;-67
2022/08/30 13:14:19;;;;;;;;;;;22.60;74.40;;;;;;5012334;28;1304;-67
2022/08/30 13:16:45;;;;;;;;;;;22.60;74.30;;;;;;5007517;28;1784;-67
2022/08/30 13:19:16;;;;;;;;;;;22.60;74.30;;;;;;5002736;28;943;-67
2022/08/30 13:21:52;;;;;;;;;;;22.60;74.30;;;;;;5016007;28;1910;-67
2022/08/30 13:24:17;;;;;;;;;;;22.60;74.30;;;;;;4961062;28;1276;-67
2022/08/30 13:26:44;;;;;;;;;;;22.60;74.30;;;;;;4997316;28;1124;-66
2022/08/30 13:29:16;;;;;;;;;;;22.60;74.30;;;;;;5013966;28;1170;-66
2022/08/30 13:31:42;;;;;;;;;;;22.60;74.30;;;;;;4995965;28;841;-67
2022/08/30 13:34:07;;;;;;;;;;;22.60;74.30;;;;;;5013228;28;1361;-67
2022/08/30 13:36:34;;;;;;;;;;;22.60;74.40;;;;;;5013777;28;1252;-67
2022/08/30 13:38:59;;;;;;;;;;;22.60;74.40;;;;;;4996090;28;1300;-67
2022/08/30 13:41:25;;;;;;;;;;;22.60;74.30;;;;;;4995754;28;1910;-68
2022/08/30 13:43:50;;;;;;;;;;;22.60;74.30;;;;;;5013205;28;1329;-67
2022/08/30 13:46:16;;;;;;;;;;;22.60;74.40;;;;;;5013167;28;1232;-68
2022/08/30 13:48:41;;;;;;;;;;;22.60;74.40;;;;;;4995498;28;1237;-68
2022/08/30 13:51:07;;;;;;;;;;;22.60;74.30;;;;;;4995595;28;1348;-68
2022/08/30 13:53:33;;;;;;;;;;;22.60;74.30;;;;;;5013276;28;1244;-67
2022/08/30 13:55:59;;;;;;;;;;;22.60;74.30;;;;;;5013088;28;1276;-66
2022/08/30 13:58:25;;;;;;;;;;;22.60;74.30;;;;;;4995695;28;1292;-67
2022/08/30 14:00:50;;;;;;;;;;;22.60;74.30;;;;;;5012598;28;1906;-67
2022/08/30 14:03:15;;;;;;;;;;;22.60;74.30;;;;;;4995386;28;1664;-67
2022/08/30 14:05:41;;;;;;;;;;;22.60;74.30;;;;;;5012924;28;1380;-66
2022/08/30 14:08:07;;;;;;;;;;;22.60;74.30;;;;;;4996088;28;895;-67
2022/08/30 14:10:33;;;;;;;;;;;22.60;74.30;;;;;;5013497;28;1260;-67
2022/08/30 14:12:58;;;;;;;;;;;22.60;74.30;;;;;;4995833;28;952;-67
2022/08/30 14:15:24;;;;;;;;;;;22.60;74.30;;;;;;4995421;28;1208;-67
2022/08/30 14:17:49;;;;;;;;;;;22.60;74.30;;;;;;5012780;28;1049;-67
2022/08/30 14:20:15;;;;;;;;;;;22.60;74.30;;;;;;5013158;28;1914;-68
2022/08/30 14:22:40;;;;;;;;;;;22.60;75.10;;;;;;5012850;28;847;-68
2022/08/30 14:25:06;;;;;;;;;;;22.60;74.30;;;;;;5013092;28;1262;-68
2022/08/30 14:27:31;;;;;;;;;;;22.60;74.30;;;;;;5012934;28;1174;-68
2022/08/30 14:29:57;;;;;;;;;;;22.60;74.30;;;;;;5012847;28;1018;-66
2022/08/30 14:32:22;;;;;;;;;;;22.60;74.30;;;;;;5012538;28;741;-67
2022/08/30 14:34:48;;;;;;;;;;;22.60;74.30;;;;;;5013057;28;2192;-66
2022/08/30 14:37:13;;;;;;;;;;;22.60;74.30;;;;;;5014669;28;1300;-66
2022/08/30 14:39:39;;;;;;;;;;;22.60;74.30;;;;;;5013622;28;1245;-66
2022/08/30 14:42:04;;;;;;;;;;;22.60;74.30;;;;;;5012123;28;1898;-67
2022/08/30 14:44:30;;;;;;;;;;;22.60;74.30;;;;;;4994172;28;1949;-66